createdAt,value
2023-01-08T00:02:10.885Z,6.10
2023-01-08T00:04:38.496Z,5.95
2023-01-08T00:07:05.377Z,5.82
2023-01-08T00:09:32.233Z,6.57
2023-01-08T00:11:59.058Z,6.47
2023-01-08T00:14:25.964Z,5.60
2023-01-08T00:16:52.915Z,6.22
2023-01-08T00:19:19.839Z,6.43
2023-01-08T00:21:46.709Z,6.75
2023-01-08T00:24:13.638Z,6.18
2023-01-08T00:26:40.493Z,7.50
2023-01-08T00:29:07.609Z,6.68
2023-01-08T00:31:34.444Z,6.03
2023-01-08T00:34:01.271Z,6.82
2023-01-08T00:36:28.184Z,6.30
2023-01-08T00:38:55.054Z,6.90
2023-01-08T00:41:22.025Z,6.72
2023-01-08T00:43:48.885Z,6.63
2023-01-08T00:46:15.758Z,7.13
2023-01-08T00:48:42.654Z,7.18
2023-01-08T00:51:09.663Z,6.95
2023-01-08T00:53:38.067Z,6.47
2023-01-08T00:56:06.923Z,6.88
2023-01-08T00:58:34.088Z,7.57
2023-01-08T01:01:01.033Z,6.53
2023-01-08T01:03:27.898Z,7.28
2023-01-08T01:06:02.040Z,7.05
2023-01-08T01:08:29.086Z,7.32
2023-01-08T01:10:56.001Z,7.75
2023-01-08T01:13:22.870Z,7.30
2023-01-08T01:15:59.559Z,7.40
2023-01-08T01:18:26.555Z,7.40
2023-01-08T01:20:53.507Z,7.60
2023-01-08T01:23:20.412Z,7.53
2023-01-08T01:25:47.414Z,7.68
2023-01-08T01:28:14.290Z,7.35
2023-01-08T01:30:41.217Z,7.20
2023-01-08T01:33:08.089Z,7.78
2023-01-08T01:35:34.923Z,7.65
2023-01-08T01:38:01.827Z,7.07
2023-01-08T01:40:28.801Z,7.82
2023-01-08T01:42:55.680Z,8.02
2023-01-08T01:45:24.972Z,8.18
2023-01-08T01:48:02.420Z,7.95
2023-01-08T01:50:29.291Z,7.40
2023-01-08T01:53:03.530Z,7.82
2023-01-08T01:55:30.523Z,7.63
2023-01-08T01:58:27.601Z,7.93
2023-01-08T02:00:55.679Z,7.53
2023-01-08T02:03:24.342Z,7.32
2023-01-08T02:05:56.785Z,7.32
2023-01-08T02:08:35.515Z,7.50
2023-01-08T02:11:11.724Z,7.63
2023-01-08T02:13:45.073Z,7.30
2023-01-08T02:16:19.772Z,8.10
2023-01-08T02:18:48.604Z,8.30
2023-01-08T02:21:59.395Z,7.97
2023-01-08T02:24:47.663Z,7.50
2023-01-08T02:27:14.807Z,7.93
2023-01-08T02:29:41.684Z,7.72
2023-01-08T02:32:08.539Z,7.45
2023-01-08T02:34:35.505Z,8.02
2023-01-08T02:37:02.375Z,8.35
2023-01-08T02:39:34.838Z,7.72
2023-01-08T02:42:07.502Z,8.50
2023-01-08T02:44:49.562Z,8.27
2023-01-08T02:47:23.849Z,8.13
2023-01-08T02:49:53.865Z,8.20
2023-01-08T02:52:20.729Z,7.95
2023-01-08T02:54:47.565Z,8.27
2023-01-08T02:57:15.148Z,8.52
2023-01-08T02:59:43.394Z,8.18
2023-01-08T03:02:11.044Z,8.15
2023-01-08T03:04:41.308Z,8.48
2023-01-08T03:07:08.196Z,8.65
2023-01-08T03:09:35.067Z,8.05
2023-01-08T03:12:09.901Z,8.43
2023-01-08T03:14:40.304Z,7.85
2023-01-08T03:17:09.727Z,7.68
2023-01-08T03:19:41.392Z,7.95
2023-01-08T03:22:10.437Z,7.75
2023-01-08T03:24:37.730Z,8.02
2023-01-08T03:27:05.357Z,7.85
2023-01-08T03:29:32.227Z,8.13
2023-01-08T03:32:01.669Z,8.13
2023-01-08T03:34:28.698Z,7.72
2023-01-08T03:36:57.166Z,8.65
2023-01-08T03:39:30.311Z,8.18
2023-01-08T03:41:59.604Z,7.88
2023-01-08T03:44:26.492Z,8.23
2023-01-08T03:46:54.698Z,8.18
2023-01-08T03:49:23.042Z,8.18
2023-01-08T03:51:49.873Z,8.27
2023-01-08T03:54:18.524Z,8.00
2023-01-08T03:56:45.370Z,8.43
2023-01-08T03:59:12.872Z,8.02
2023-01-08T04:01:39.920Z,7.80
2023-01-08T04:04:07.003Z,8.80
2023-01-08T04:06:33.864Z,7.63
2023-01-08T04:09:00.807Z,7.80
2023-01-08T04:11:27.737Z,8.45
2023-01-08T04:13:54.648Z,7.63
2023-01-08T04:16:22.541Z,7.60
2023-01-08T04:18:49.436Z,7.50
2023-01-08T04:21:16.566Z,8.07
2023-01-08T04:23:43.438Z,8.50
2023-01-08T04:26:10.303Z,8.68
2023-01-08T04:28:37.148Z,8.32
2023-01-08T04:31:08.030Z,8.05
2023-01-08T04:33:35.234Z,7.95
2023-01-08T04:36:02.799Z,8.10
2023-01-08T04:38:29.795Z,8.02
2023-01-08T04:41:00.536Z,8.35
2023-01-08T04:43:27.374Z,7.60
2023-01-08T04:45:58.552Z,7.85
2023-01-08T04:48:25.571Z,8.32
2023-01-08T04:50:52.415Z,8.38
2023-01-08T04:53:19.404Z,7.35
2023-01-08T04:55:46.262Z,8.02
2023-01-08T04:58:13.110Z,8.25
2023-01-08T05:00:40.194Z,8.30
2023-01-08T05:03:07.074Z,8.50
2023-01-08T05:05:34.292Z,8.30
2023-01-08T05:08:01.190Z,8.32
2023-01-08T05:10:28.152Z,7.85
2023-01-08T05:13:01.422Z,7.90
2023-01-08T05:15:28.496Z,7.57
2023-01-08T05:18:05.410Z,8.02
2023-01-08T05:20:32.634Z,7.70
2023-01-08T05:22:59.514Z,8.13
2023-01-08T05:25:26.519Z,8.05
2023-01-08T05:27:53.471Z,8.18
2023-01-08T05:30:20.344Z,7.68
2023-01-08T05:32:47.232Z,7.15
2023-01-08T05:35:14.089Z,7.63
2023-01-08T05:37:40.987Z,7.80
2023-01-08T05:40:08.432Z,8.55
2023-01-08T05:42:35.514Z,8.30
2023-01-08T05:45:05.467Z,7.63
2023-01-08T05:47:32.773Z,7.30
2023-01-08T05:49:59.752Z,7.40
2023-01-08T05:52:26.782Z,7.30
2023-01-08T05:54:53.694Z,7.22
2023-01-08T05:57:20.564Z,7.63
2023-01-08T05:59:47.451Z,7.38
2023-01-08T06:02:14.400Z,7.32
2023-01-08T06:04:41.308Z,7.65
2023-01-08T06:07:08.319Z,7.75
2023-01-08T06:09:35.197Z,7.57
2023-01-08T06:12:02.052Z,7.43
2023-01-08T06:14:28.894Z,6.85
2023-01-08T06:16:55.780Z,8.15
2023-01-08T06:19:22.801Z,7.40
2023-01-08T06:21:49.689Z,8.07
2023-01-08T06:24:16.551Z,6.93
2023-01-08T06:26:43.373Z,7.25
2023-01-08T06:29:10.258Z,6.60
2023-01-08T06:31:37.230Z,7.82
2023-01-08T06:34:04.273Z,7.53
2023-01-08T06:36:31.129Z,7.03
2023-01-08T06:38:59.312Z,7.25
2023-01-08T06:41:26.166Z,7.40
2023-01-08T06:43:52.991Z,7.10
2023-01-08T06:46:19.847Z,7.43
2023-01-08T06:48:46.697Z,7.28
2023-01-08T06:51:13.535Z,7.20
2023-01-08T06:53:40.418Z,7.18
2023-01-08T06:56:09.461Z,7.28
2023-01-08T06:58:37.150Z,6.72
2023-01-08T07:01:04.203Z,7.05
2023-01-08T07:03:31.101Z,6.70
2023-01-08T07:05:58.016Z,6.78
2023-01-08T07:08:25.005Z,7.20
2023-01-08T07:10:51.846Z,7.38
2023-01-08T07:13:18.760Z,6.88
2023-01-08T07:15:45.675Z,7.40
2023-01-08T07:18:13.064Z,7.57
2023-01-08T07:20:39.940Z,7.63
2023-01-08T07:23:10.437Z,7.07
2023-01-08T07:25:37.311Z,7.65
2023-01-08T07:28:04.157Z,7.80
2023-01-08T07:30:31.112Z,7.70
2023-01-08T07:33:01.366Z,7.40
2023-01-08T07:35:28.528Z,7.50
2023-01-08T07:37:55.504Z,7.57
2023-01-08T07:40:22.361Z,7.47
2023-01-08T07:42:49.222Z,6.90
2023-01-08T07:45:16.071Z,7.55
2023-01-08T07:47:42.911Z,7.47
2023-01-08T07:50:09.923Z,7.93
2023-01-08T07:52:36.766Z,7.78
2023-01-08T07:55:03.753Z,7.20
2023-01-08T07:57:30.579Z,7.78
2023-01-08T07:59:57.441Z,6.13
2023-01-08T08:02:24.423Z,7.03
2023-01-08T08:04:51.345Z,6.97
2023-01-08T08:07:18.199Z,7.82
2023-01-08T08:09:45.121Z,7.57
2023-01-08T08:12:12.070Z,7.10
2023-01-08T08:14:38.932Z,6.97
2023-01-08T08:17:05.908Z,7.82
2023-01-08T08:19:32.777Z,7.10
2023-01-08T08:21:59.679Z,7.75
2023-01-08T08:24:26.496Z,7.20
2023-01-08T08:26:54.351Z,7.00
2023-01-08T08:29:21.212Z,7.13
2023-01-08T08:31:48.079Z,7.00
2023-01-08T08:34:14.947Z,7.20
2023-01-08T08:36:41.808Z,7.50
2023-01-08T08:39:08.752Z,7.72
2023-01-08T08:41:36.018Z,7.65
2023-01-08T08:44:02.897Z,7.53
2023-01-08T08:46:30.101Z,7.72
2023-01-08T08:48:57.019Z,7.65
2023-01-08T08:51:23.900Z,7.50
2023-01-08T08:53:50.732Z,7.22
2023-01-08T08:56:17.654Z,7.43
2023-01-08T08:58:45.437Z,8.00
2023-01-08T09:01:12.285Z,7.78
2023-01-08T09:03:39.226Z,7.45
2023-01-08T09:06:06.623Z,7.50
2023-01-08T09:08:33.609Z,7.05
2023-01-08T09:11:02.419Z,7.40
2023-01-08T09:13:29.427Z,7.15
2023-01-08T09:16:01.124Z,7.70
2023-01-08T09:18:28.038Z,7.70
2023-01-08T09:20:54.918Z,7.75
2023-01-08T09:23:21.823Z,7.97
2023-01-08T09:25:48.681Z,7.60
2023-01-08T09:28:17.265Z,8.32
2023-01-08T09:30:44.096Z,7.93
2023-01-08T09:33:11.434Z,7.53
2023-01-08T09:35:38.342Z,8.20
2023-01-08T09:38:05.353Z,7.25
2023-01-08T09:40:37.899Z,7.45
2023-01-08T09:43:06.088Z,7.78
2023-01-08T09:45:35.315Z,7.30
2023-01-08T09:48:12.730Z,8.20
2023-01-08T09:50:39.613Z,7.72
2023-01-08T09:53:17.761Z,8.30
2023-01-08T09:56:08.673Z,7.78
2023-01-08T09:58:40.623Z,7.40
2023-01-08T10:01:07.564Z,8.05
2023-01-08T10:04:02.284Z,7.95
2023-01-08T10:06:29.192Z,7.72
2023-01-08T10:08:56.127Z,7.82
2023-01-08T10:11:23.108Z,8.13
2023-01-08T10:13:52.715Z,7.63
2023-01-08T10:16:38.097Z,8.10
2023-01-08T10:19:05.486Z,7.78
2023-01-08T10:21:40.027Z,7.72
2023-01-08T10:24:07.375Z,7.88
2023-01-08T10:26:38.603Z,7.72
2023-01-08T10:29:15.996Z,8.13
2023-01-08T10:31:47.385Z,8.40
2023-01-08T10:34:25.149Z,7.68
2023-01-08T10:36:52.052Z,7.68
2023-01-08T10:39:27.268Z,7.63
2023-01-08T10:41:56.379Z,8.23
2023-01-08T10:44:23.764Z,7.60
2023-01-08T10:46:53.530Z,8.25
2023-01-08T10:49:29.433Z,8.05
2023-01-08T10:51:56.587Z,7.68
2023-01-08T10:54:39.849Z,7.68
2023-01-08T10:57:30.027Z,6.90
2023-01-08T10:59:57.025Z,8.35
2023-01-08T11:02:31.954Z,7.93
2023-01-08T11:04:58.850Z,7.18
2023-01-08T11:07:25.689Z,7.28
2023-01-08T11:09:53.766Z,6.78
2023-01-08T11:12:30.085Z,6.93
2023-01-08T11:14:57.236Z,7.40
2023-01-08T11:17:25.113Z,7.15
2023-01-08T11:19:51.938Z,7.68
2023-01-08T11:22:20.850Z,7.40
2023-01-08T11:24:47.881Z,7.57
2023-01-08T11:27:34.920Z,7.63
2023-01-08T11:30:12.316Z,7.28
2023-01-08T11:32:52.698Z,6.40
2023-01-08T11:35:22.400Z,7.13
2023-01-08T11:37:51.328Z,6.97
2023-01-08T11:40:21.222Z,6.80
2023-01-08T11:43:11.091Z,7.20
2023-01-08T11:45:50.890Z,7.00
2023-01-08T11:48:45.105Z,7.03
2023-01-08T11:51:28.388Z,6.85
2023-01-08T11:54:01.117Z,6.53
2023-01-08T11:56:43.110Z,6.35
2023-01-08T11:59:24.700Z,6.30
2023-01-08T12:02:01.535Z,7.18
2023-01-08T12:04:51.371Z,6.32
2023-01-08T12:07:37.216Z,6.72
2023-01-08T12:10:03.922Z,6.57
2023-01-08T12:13:01.585Z,6.13
2023-01-08T12:15:51.782Z,6.65
2023-01-08T12:18:36.626Z,5.78
2023-01-08T12:21:09.692Z,6.45
2023-01-08T12:23:47.309Z,6.00
2023-01-08T12:26:28.502Z,5.80
2023-01-08T12:29:22.665Z,6.03
2023-01-08T12:32:04.301Z,5.97
2023-01-08T12:34:41.868Z,6.13
2023-01-08T12:37:21.199Z,6.22
2023-01-08T12:40:01.136Z,5.82
2023-01-08T12:42:28.717Z,6.05
2023-01-08T12:44:55.676Z,5.60
2023-01-08T12:47:25.643Z,6.20
2023-01-08T12:50:04.103Z,6.00
2023-01-08T12:52:48.553Z,5.40
2023-01-08T12:55:39.714Z,6.10
2023-01-08T12:58:32.615Z,6.32
2023-01-08T13:01:27.375Z,5.63
2023-01-08T13:03:54.607Z,5.57
2023-01-08T13:06:21.468Z,5.93
2023-01-08T13:08:52.453Z,5.70
2023-01-08T13:11:32.569Z,5.90
2023-01-08T13:14:01.047Z,5.90
2023-01-08T13:16:27.944Z,5.80
2023-01-08T13:18:56.823Z,5.78
2023-01-08T13:21:43.210Z,5.20
2023-01-08T13:24:32.731Z,5.63
2023-01-08T13:27:18.398Z,5.50
2023-01-08T13:29:51.202Z,5.53
2023-01-08T13:32:49.449Z,5.57
2023-01-08T13:35:16.378Z,5.68
2023-01-08T13:37:43.747Z,5.35
2023-01-08T13:40:44.757Z,5.25
2023-01-08T13:43:16.304Z,5.78
2023-01-08T13:45:43.185Z,5.50
2023-01-08T13:48:23.286Z,6.20
2023-01-08T13:50:50.167Z,5.90
2023-01-08T13:53:17.047Z,5.35
2023-01-08T13:56:03.913Z,5.40
2023-01-08T13:58:41.063Z,5.60
2023-01-08T14:01:08.198Z,5.03
2023-01-08T14:03:37.464Z,5.40
2023-01-08T14:06:13.352Z,5.25
2023-01-08T14:08:56.566Z,4.85
2023-01-08T14:11:25.239Z,5.38
2023-01-08T14:13:52.198Z,5.55
2023-01-08T14:16:19.260Z,5.15
2023-01-08T14:18:46.231Z,5.28
2023-01-08T14:21:13.758Z,5.30
2023-01-08T14:23:43.197Z,5.20
2023-01-08T14:26:36.138Z,5.00
2023-01-08T14:29:04.576Z,5.55
2023-01-08T14:31:31.613Z,5.20
2023-01-08T14:33:59.059Z,5.15
2023-01-08T14:36:26.075Z,5.43
2023-01-08T14:38:53.016Z,5.15
2023-01-08T14:41:54.342Z,5.28
2023-01-08T14:44:29.172Z,5.50
2023-01-08T14:46:59.799Z,5.15
2023-01-08T14:49:28.985Z,5.03
2023-01-08T14:51:56.760Z,4.95
2023-01-08T14:54:31.858Z,5.22
2023-01-08T14:57:00.946Z,4.97
2023-01-08T14:59:39.764Z,4.97
2023-01-08T15:02:08.608Z,5.40
2023-01-08T15:04:35.732Z,5.20
2023-01-08T15:07:17.009Z,5.22
2023-01-08T15:09:43.924Z,5.20
2023-01-08T15:12:24.780Z,5.20
2023-01-08T15:14:51.673Z,4.75
2023-01-08T15:17:20.142Z,5.32
2023-01-08T15:19:50.203Z,4.85
2023-01-08T15:22:19.977Z,4.78
2023-01-08T15:25:16.297Z,4.57
2023-01-08T15:28:08.910Z,4.78
2023-01-08T15:30:43.302Z,5.00
2023-01-08T15:33:21.757Z,5.47
2023-01-08T15:35:48.734Z,18.13
2023-01-08T15:38:16.272Z,16.40
2023-01-08T15:40:43.366Z,16.33
2023-01-08T15:43:14.541Z,14.82
2023-01-08T15:45:42.849Z,15.52
2023-01-08T15:48:09.997Z,14.63
2023-01-08T15:50:39.932Z,14.90
2023-01-08T15:53:13.142Z,14.68
2023-01-08T15:55:43.632Z,14.82
2023-01-08T15:58:12.206Z,14.85
2023-01-08T16:00:40.063Z,14.98
2023-01-08T16:03:10.112Z,13.80
2023-01-08T16:05:37.083Z,14.95
2023-01-08T16:08:04.567Z,14.18
2023-01-08T16:10:32.092Z,14.88
2023-01-08T16:13:00.491Z,13.55
2023-01-08T16:15:28.736Z,13.70
2023-01-08T16:17:55.731Z,13.23
2023-01-08T16:20:22.584Z,12.70
2023-01-08T16:22:50.266Z,13.45
2023-01-08T16:25:17.161Z,13.15
2023-01-08T16:27:44.045Z,13.43
2023-01-08T16:30:14.617Z,12.82
2023-01-08T16:32:41.927Z,12.52
2023-01-08T16:35:09.534Z,12.77
2023-01-08T16:37:36.766Z,12.05
2023-01-08T16:40:03.993Z,12.50
2023-01-08T16:42:30.943Z,11.73
2023-01-08T16:44:57.840Z,12.40
2023-01-08T16:47:24.806Z,11.60
2023-01-08T16:49:51.664Z,11.85
2023-01-08T16:52:18.597Z,12.82
2023-01-08T16:54:45.937Z,11.82
2023-01-08T16:57:12.812Z,11.93
2023-01-08T16:59:39.688Z,12.07
2023-01-08T17:02:06.641Z,11.45
2023-01-08T17:04:33.520Z,11.27
2023-01-08T17:07:00.366Z,11.98
2023-01-08T17:09:27.260Z,11.80
2023-01-08T17:11:54.097Z,11.70
2023-01-08T17:14:21.013Z,11.00
2023-01-08T17:16:49.136Z,11.95
2023-01-08T17:19:16.594Z,11.40
2023-01-08T17:21:44.629Z,11.18
2023-01-08T17:24:11.700Z,11.93
2023-01-08T17:26:38.600Z,10.55
2023-01-08T17:29:05.553Z,10.93
2023-01-08T17:31:39.596Z,11.20
2023-01-08T17:34:08.490Z,11.23
2023-01-08T17:36:36.186Z,10.77
2023-01-08T17:39:03.432Z,10.82
2023-01-08T17:41:48.853Z,10.65
2023-01-08T17:44:15.791Z,11.05
2023-01-08T17:46:45.020Z,11.20
2023-01-08T17:49:15.590Z,10.45
2023-01-08T17:51:42.822Z,10.48
2023-01-08T17:54:14.341Z,10.57
2023-01-08T17:56:41.359Z,10.18
2023-01-08T17:59:08.287Z,10.77
2023-01-08T18:01:36.633Z,10.45
2023-01-08T18:04:03.821Z,11.02
2023-01-08T18:06:30.669Z,10.20
2023-01-08T18:08:57.524Z,10.43
2023-01-08T18:11:25.498Z,10.27
2023-01-08T18:13:59.372Z,9.82
2023-01-08T18:16:26.369Z,9.43
2023-01-08T18:18:53.355Z,10.10
2023-01-08T18:21:20.416Z,9.68
2023-01-08T18:23:50.460Z,9.68
2023-01-08T18:26:18.108Z,9.70
2023-01-08T18:28:45.079Z,9.77
2023-01-08T18:31:12.361Z,9.48
2023-01-08T18:33:39.407Z,9.68
2023-01-08T18:36:09.448Z,9.27
2023-01-08T18:38:38.101Z,9.85
2023-01-08T18:41:05.368Z,9.32
2023-01-08T18:43:33.223Z,9.90
2023-01-08T18:46:00.947Z,9.48
2023-01-08T18:48:28.612Z,9.25
2023-01-08T18:50:55.523Z,9.65
2023-01-08T18:53:22.559Z,9.52
2023-01-08T18:55:50.364Z,9.20
2023-01-08T18:58:17.192Z,9.43
2023-01-08T19:00:44.088Z,8.60
2023-01-08T19:03:12.282Z,9.07
2023-01-08T19:05:42.656Z,9.32
2023-01-08T19:08:09.646Z,9.07
2023-01-08T19:10:39.682Z,8.40
2023-01-08T19:13:06.547Z,8.60
2023-01-08T19:15:33.426Z,9.20
2023-01-08T19:18:00.297Z,8.80
2023-01-08T19:20:27.697Z,9.18
2023-01-08T19:22:54.771Z,9.05
2023-01-08T19:25:21.818Z,8.73
2023-01-08T19:27:48.753Z,8.30
2023-01-08T19:30:15.845Z,8.35
2023-01-08T19:32:42.692Z,8.38
2023-01-08T19:35:09.700Z,9.18
2023-01-08T19:37:36.601Z,8.82
2023-01-08T19:40:05.000Z,8.68
2023-01-08T19:42:50.676Z,8.10
2023-01-08T19:45:19.197Z,7.57
2023-01-08T19:47:46.066Z,9.07
2023-01-08T19:50:12.963Z,9.43
2023-01-08T19:52:39.854Z,9.00
2023-01-08T19:55:06.894Z,8.32
2023-01-08T19:57:33.793Z,8.63
2023-01-08T20:00:00.674Z,8.27
2023-01-08T20:02:27.634Z,8.15
2023-01-08T20:04:54.518Z,8.60
2023-01-08T20:07:21.349Z,8.45
2023-01-08T20:09:48.216Z,7.97
2023-01-08T20:12:15.872Z,7.88
2023-01-08T20:14:42.748Z,8.23
2023-01-08T20:17:11.786Z,8.93
2023-01-08T20:19:38.728Z,8.63
2023-01-08T20:22:05.685Z,8.63
2023-01-08T20:24:32.605Z,8.30
2023-01-08T20:26:59.477Z,8.48
2023-01-08T20:29:27.274Z,8.48
2023-01-08T20:31:57.406Z,8.35
2023-01-08T20:34:24.448Z,8.07
2023-01-08T20:36:51.369Z,7.78
2023-01-08T20:39:18.503Z,8.15
2023-01-08T20:41:50.425Z,8.23
2023-01-08T20:44:28.239Z,8.07
2023-01-08T20:46:55.176Z,7.85
2023-01-08T20:49:22.074Z,7.68
2023-01-08T20:51:58.013Z,7.88
2023-01-08T20:54:25.756Z,7.45
2023-01-08T20:56:57.099Z,8.13
2023-01-08T20:59:26.767Z,7.68
2023-01-08T21:01:53.952Z,8.35
2023-01-08T21:04:20.936Z,8.27
2023-01-08T21:06:47.980Z,8.25
2023-01-08T21:09:16.613Z,8.13
2023-01-08T21:11:43.580Z,8.05
2023-01-08T21:14:10.621Z,7.95
2023-01-08T21:16:39.538Z,7.80
2023-01-08T21:19:06.517Z,7.90
2023-01-08T21:21:34.791Z,8.07
2023-01-08T21:24:07.201Z,7.63
2023-01-08T21:26:34.254Z,8.02
2023-01-08T21:29:03.223Z,8.23
2023-01-08T21:31:30.351Z,8.05
2023-01-08T21:33:58.247Z,8.65
2023-01-08T21:36:26.770Z,8.45
2023-01-08T21:38:53.729Z,8.57
2023-01-08T21:41:40.437Z,8.48
2023-01-08T21:44:30.825Z,7.57
2023-01-08T21:46:59.249Z,8.77
2023-01-08T21:49:26.524Z,8.45
2023-01-08T21:52:12.085Z,8.38
2023-01-08T21:54:39.494Z,8.43
2023-01-08T21:57:06.858Z,8.77
2023-01-08T21:59:34.302Z,8.13
2023-01-08T22:02:01.396Z,7.80
2023-01-08T22:04:28.413Z,8.00
2023-01-08T22:06:55.486Z,8.23
2023-01-08T22:09:22.385Z,8.48
2023-01-08T22:11:49.446Z,8.55
2023-01-08T22:14:16.442Z,8.70
2023-01-08T22:16:43.339Z,7.97
2023-01-08T22:19:10.385Z,8.57
2023-01-08T22:21:37.243Z,8.40
2023-01-08T22:24:04.165Z,8.10
2023-01-08T22:26:31.035Z,8.73
2023-01-08T22:28:58.009Z,8.73
2023-01-08T22:31:24.842Z,8.63
2023-01-08T22:33:55.327Z,8.38
2023-01-08T22:36:22.308Z,8.63
2023-01-08T22:38:49.180Z,9.07
2023-01-08T22:41:17.843Z,8.68
2023-01-08T22:43:44.727Z,8.68
2023-01-08T22:46:13.183Z,8.70
2023-01-08T22:48:40.061Z,8.82
2023-01-08T22:51:07.184Z,9.25
2023-01-08T22:53:34.067Z,9.13
2023-01-08T22:56:00.909Z,8.80
2023-01-08T22:58:28.100Z,9.55
2023-01-08T23:00:55.034Z,9.18
2023-01-08T23:03:21.868Z,9.88
2023-01-08T23:05:48.779Z,9.43
2023-01-08T23:08:15.634Z,9.82
2023-01-08T23:10:42.757Z,9.10
2023-01-08T23:13:09.594Z,9.52
2023-01-08T23:15:36.455Z,10.40
2023-01-08T23:18:03.605Z,10.20
2023-01-08T23:20:30.557Z,9.65
2023-01-08T23:22:57.366Z,9.65
2023-01-08T23:25:24.190Z,9.15
2023-01-08T23:27:51.359Z,10.32
2023-01-08T23:30:18.365Z,9.15
2023-01-08T23:32:45.407Z,9.77
2023-01-08T23:35:12.297Z,9.63
2023-01-08T23:37:39.121Z,9.82
2023-01-08T23:40:06.618Z,9.50
2023-01-08T23:42:33.591Z,9.25
2023-01-08T23:45:00.427Z,9.30
2023-01-08T23:47:27.276Z,9.35
2023-01-08T23:49:54.165Z,10.27
2023-01-08T23:52:20.983Z,9.27
2023-01-08T23:54:47.804Z,9.40
2023-01-08T23:57:14.737Z,9.57
2023-01-08T23:59:41.597Z,9.20
